Time;durP1;ratioP1;P1;durP2;ratioP2;P2;SDS_P1;SDS_P2;PMS_P1;PMS_P2;Temp;Humidity;BMP_temperature;BMP_pressure;BME280_temperature;BME280_humidity;BME280_pressure;Samples;Min_cycle;Max_cycle;Signal;HPM_P1;HPM_P2
2023/05/02 00:01:05;;;;;;;;;;;13.20;69.30;;;;;;5092524;28;20393;-86
2023/05/02 00:03:31;;;;;;;7.22;1.50;;;13.40;69.70;;;;;;5093066;28;19904;-86
2023/05/02 00:05:58;;;;;;;;;;;13.30;69.40;;;;;;5092345;28;20030;-86
2023/05/02 00:08:24;;;;;;;5.40;1.55;;;13.40;69.00;;;;;;5090918;28;20288;-86
2023/05/02 00:10:49;;;;;;;;;;;13.50;69.40;;;;;;5092518;28;20027;-86
2023/05/02 00:13:15;;;;;;;3.63;0.98;;;13.50;68.70;;;;;;5092622;28;19907;-86
2023/05/02 00:15:40;;;;;;;;;;;13.70;67.40;;;;;;5092117;28;20021;-86
2023/05/02 00:18:06;;;;;;;2.80;1.00;;;13.70;66.60;;;;;;5091303;28;20002;-85
2023/05/02 00:20:32;;;;;;;;;;;13.70;66.00;;;;;;5092211;28;20047;-86
2023/05/02 00:22:57;;;;;;;4.50;1.13;;;13.70;65.70;;;;;;5091701;28;19911;-86
2023/05/02 00:25:23;;;;;;;;;;;13.80;65.50;;;;;;5092216;28;20024;-86
2023/05/02 00:27:49;;;;;;;4.55;1.33;;;13.70;65.30;;;;;;5091627;28;19911;-86
2023/05/02 00:30:16;;;;;;;1.73;0.68;;;13.80;65.20;;;;;;5091701;28;20024;-86
2023/05/02 00:32:42;;;;;;;5.47;1.33;;;13.70;65.40;;;;;;5092593;28;20116;-86
2023/05/02 00:35:08;;;;;;;;;;;13.70;66.80;;;;;;5091148;28;20028;-86
2023/05/02 00:37:34;;;;;;;3.17;1.10;;;13.80;67.30;;;;;;5090753;28;20280;-86
2023/05/02 00:40:00;;;;;;;4.38;1.40;;;13.80;66.70;;;;;;5091308;28;20047;-85
2023/05/02 00:42:30;;;;;;;;;;;13.90;67.20;;;;;;5091722;28;20028;-86
2023/05/02 00:44:56;;;;;;;6.40;1.42;;;13.90;66.20;;;;;;5089478;28;19908;-84
2023/05/02 00:47:22;;;;;;;3.65;1.23;;;14.00;65.80;;;;;;5089970;28;20115;-87
2023/05/02 00:49:48;;;;;;;;;;;14.10;65.30;;;;;;5091803;28;20028;-86
2023/05/02 00:52:14;;;;;;;8.43;1.65;;;14.20;64.80;;;;;;5091349;28;19939;-86
2023/05/02 00:54:40;;;;;;;;;;;14.20;64.50;;;;;;5091306;28;20483;-85
2023/05/02 00:57:06;;;;;;;2.92;1.60;;;14.30;63.70;;;;;;5091347;28;19908;-85
2023/05/02 00:59:33;;;;;;;;;;;14.30;64.20;;;;;;5091585;28;20036;-86
2023/05/02 01:02:29;;;;;;;8.02;1.55;;;14.30;64.40;;;;;;5091200;28;19910;-86
2023/05/02 01:05:31;;;;;;;3.15;1.00;;;14.50;63.50;;;;;;5089863;28;20036;-87
2023/05/02 01:08:18;;;;;;;10.88;1.75;;;14.50;63.00;;;;;;5090271;28;20039;-84
2023/05/02 01:10:58;;;;;;;6.15;1.75;;;14.60;62.90;;;;;;5089981;28;20024;-82
2023/05/02 01:13:30;;;;;;;8.52;1.73;;;14.70;63.60;;;;;;5091527;28;20028;-86
2023/05/02 01:15:58;;;;;;;4.15;1.83;;;14.80;63.80;;;;;;5091774;28;20112;-85
2023/05/02 01:18:29;;;;;;;4.78;1.50;;;14.90;64.20;;;;;;5090013;28;20060;-84
2023/05/02 01:20:59;;;;;;;9.55;1.27;;;15.10;64.40;;;;;;5091070;28;20027;-86
2023/05/02 01:23:34;;;;;;;6.28;1.48;;;15.20;64.10;;;;;;5091270;28;20024;-86
2023/05/02 01:26:14;;;;;;;3.80;1.55;;;15.20;64.10;;;;;;5092069;28;20099;-87
2023/05/02 01:28:59;;;;;;;4.13;1.45;;;15.20;64.10;;;;;;5093650;28;20427;-84
2023/05/02 01:31:31;;;;;;;7.97;1.40;;;15.10;64.30;;;;;;5093206;28;20020;-86
2023/05/02 01:33:59;;;;;;;3.22;1.10;;;15.00;64.00;;;;;;5090973;28;20035;-87
2023/05/02 01:36:29;;;;;;;3.05;1.02;;;15.00;63.90;;;;;;5092845;28;20070;-84
2023/05/02 01:38:56;;;;;;;2.85;1.38;;;14.80;64.10;;;;;;5093983;28;20028;-85
2023/05/02 01:41:25;;;;;;;3.10;1.10;;;14.70;64.70;;;;;;5093689;28;20032;-87
2023/05/02 01:43:52;;;;;;;4.10;1.10;;;14.60;65.60;;;;;;5095357;28;20027;-87
2023/05/02 01:46:20;;;;;;;5.32;1.25;;;14.40;66.90;;;;;;5093726;28;20081;-84
2023/05/02 01:48:50;;;;;;;3.63;1.50;;;14.30;68.80;;;;;;5094412;28;20024;-86
2023/05/02 01:51:17;;;;;;;8.90;1.92;;;14.20;70.00;;;;;;5094106;28;20016;-85
2023/05/02 01:53:47;;;;;;;4.15;1.63;;;14.10;70.60;;;;;;5093409;28;20085;-86
2023/05/02 01:56:15;;;;;;;5.38;1.52;;;13.90;71.80;;;;;;5092996;28;20027;-86
2023/05/02 01:58:42;;;;;;;6.90;1.73;;;13.80;72.30;;;;;;5094235;28;20059;-87
2023/05/02 02:01:09;;;;;;;10.50;1.77;;;13.70;73.80;;;;;;5093675;28;20056;-84
2023/05/02 02:03:35;;;;;;;7.28;1.60;;;13.70;76.10;;;;;;5093198;28;20032;-86
2023/05/02 02:06:02;;;;;;;;;;;13.70;75.90;;;;;;5095780;28;20066;-86
2023/05/02 02:08:27;;;;;;;5.82;1.50;;;13.70;77.40;;;;;;5094051;28;19954;-84
2023/05/02 02:10:56;;;;;;;;;;;13.60;77.40;;;;;;5094186;28;20064;-85
2023/05/02 02:13:30;;;;;;;7.28;2.38;;;13.60;78.30;;;;;;5094127;28;19943;-85
2023/05/02 02:16:00;;;;;;;3.10;1.30;;;13.70;80.50;;;;;;5095368;28;20050;-85
2023/05/02 02:18:28;;;;;;;8.40;2.35;;;13.70;79.80;;;;;;5093148;28;20577;-84
2023/05/02 02:20:56;;;;;;;6.65;2.15;;;13.80;79.50;;;;;;5092482;28;20036;-84
2023/05/02 02:23:26;;;;;;;4.50;1.85;;;13.80;81.90;;;;;;5093320;28;20035;-85
2023/05/02 02:25:53;;;;;;;6.22;2.15;;;13.90;80.40;;;;;;5094847;28;20361;-84
2023/05/02 02:28:18;;;;;;;5.30;2.05;;;14.00;83.50;;;;;;5095012;28;20032;-85
2023/05/02 02:30:44;;;;;;;;;;;14.00;81.40;;;;;;5094547;28;20034;-86
2023/05/02 02:33:10;;;;;;;10.75;1.77;;;14.00;81.60;;;;;;5091806;28;19950;-85
2023/05/02 02:35:55;;;;;;;;;;;14.10;82.90;;;;;;5093876;28;20032;-85
2023/05/02 02:38:34;;;;;;;6.43;1.95;;;14.00;84.60;;;;;;5092428;28;19912;-86
2023/05/02 02:41:09;;;;;;;4.75;1.95;;;14.00;85.60;;;;;;5093427;28;20024;-87
2023/05/02 02:43:46;;;;;;;9.38;2.92;;;13.90;87.40;;;;;;5093623;28;20392;-86
2023/05/02 02:46:17;;;;;;;8.05;2.15;;;14.00;90.00;;;;;;5093304;28;20038;-85
2023/05/02 02:48:55;;;;;;;7.55;2.00;;;14.00;90.00;;;;;;5093189;28;20119;-87
2023/05/02 02:51:38;;;;;;;4.40;1.70;;;13.90;90.40;;;;;;5093214;28;20028;-86
2023/05/02 02:54:10;;;;;;;9.50;2.08;;;13.90;91.00;;;;;;5093183;28;20052;-86
2023/05/02 02:56:40;;;;;;;6.05;2.38;;;13.70;92.20;;;;;;5093004;28;20097;-85
2023/05/02 02:59:14;;;;;;;6.15;2.20;;;13.60;93.60;;;;;;5092785;28;20415;-86
2023/05/02 03:01:45;;;;;;;6.32;3.38;;;13.40;96.70;;;;;;5094198;28;20033;-86
2023/05/02 03:04:17;;;;;;;5.97;2.47;;;13.30;98.00;;;;;;5092707;28;20059;-84
2023/05/02 03:06:43;;;;;;;7.50;2.67;;;13.20;99.90;;;;;;5092736;28;20028;-85
2023/05/02 03:09:18;;;;;;;;;;;13.20;99.90;;;;;;5093250;28;20030;-87
2023/05/02 03:11:47;;;;;;;3.25;2.08;;;13.10;99.70;;;;;;5092793;28;20380;-87
2023/05/02 03:14:13;;;;;;;7.80;2.00;;;13.00;99.90;;;;;;5092884;28;20024;-86
2023/05/02 03:16:39;;;;;;;;;;;12.90;99.90;;;;;;5093287;28;20396;-86
2023/05/02 03:19:06;;;;;;;9.68;1.90;;;12.90;99.90;;;;;;5093271;28;19969;-87
2023/05/02 03:21:32;;;;;;;12.00;2.40;;;12.80;99.90;;;;;;5092421;28;20128;-86
2023/05/02 03:24:01;;;;;;;;;;;12.70;99.90;;;;;;5092774;28;20122;-85
2023/05/02 03:26:27;;;;;;;3.33;2.00;;;12.60;99.90;;;;;;5092414;28;19907;-86
2023/05/02 03:28:53;;;;;;;;;;;12.50;99.90;;;;;;5092797;28;20035;-86
2023/05/02 03:31:19;;;;;;;7.60;2.90;;;12.50;99.90;;;;;;5093650;28;19911;-88
2023/05/02 03:33:45;;;;;;;;;;;12.40;99.90;;;;;;5093867;28;20056;-86
2023/05/02 03:36:10;;;;;;;5.90;3.17;;;12.30;99.90;;;;;;5093298;28;19965;-86
2023/05/02 03:38:36;;;;;;;;;;;12.30;99.90;;;;;;5093625;28;20493;-86
2023/05/02 03:41:02;;;;;;;6.40;2.40;;;12.30;99.90;;;;;;5093252;28;19904;-86
2023/05/02 03:43:28;;;;;;;8.55;3.08;;;12.40;99.90;;;;;;5091892;28;20511;-86
2023/05/02 03:45:54;;;;;;;6.53;2.92;;;12.40;99.90;;;;;;5092205;28;20082;-85
2023/05/02 03:48:20;;;;;;;;;;;12.50;99.90;;;;;;5091824;28;20032;-86
2023/05/02 03:50:47;;;;;;;7.00;2.60;;;12.50;99.90;;;;;;5090894;28;19908;-86
2023/05/02 03:53:14;;;;;;;7.65;2.83;;;12.50;99.90;;;;;;5089426;28;20081;-86
2023/05/02 03:55:41;;;;;;;5.70;2.85;;;12.50;99.90;;;;;;5092575;28;20020;-86
2023/05/02 03:58:07;;;;;;;10.95;3.58;;;12.60;99.90;;;;;;5091956;28;20028;-87
2023/05/02 04:00:33;;;;;;;7.93;2.97;;;12.60;99.90;;;;;;5092177;28;20123;-85
2023/05/02 04:03:01;;;;;;;;;;;12.60;99.90;;;;;;5092099;28;20047;-85
2023/05/02 04:05:27;;;;;;;12.63;3.50;;;12.70;99.90;;;;;;5091831;28;19949;-87
2023/05/02 04:07:54;;;;;;;;;;;12.70;99.90;;;;;;5091926;28;20031;-86
2023/05/02 04:10:19;;;;;;;4.47;2.53;;;12.70;99.90;;;;;;5091619;28;19915;-85
2023/05/02 04:12:45;;;;;;;;;;;12.80;99.90;;;;;;5092002;28;20036;-86
2023/05/02 04:15:11;;;;;;;10.32;4.70;;;12.80;99.90;;;;;;5092251;28;19911;-87
2023/05/02 04:17:37;;;;;;;;;;;12.90;99.90;;;;;;5092936;28;20063;-89
2023/05/02 04:20:03;;;;;;;6.18;2.30;;;12.90;99.90;;;;;;5091887;28;19923;-86
2023/05/02 04:22:30;;;;;;;5.03;2.00;;;13.00;99.90;;;;;;5091572;28;20106;-86
2023/05/02 04:24:56;;;;;;;7.45;2.67;;;13.10;99.90;;;;;;5091760;28;20024;-85
2023/05/02 04:27:21;;;;;;;;;;;13.10;99.90;;;;;;5092387;28;20536;-85
2023/05/02 04:29:48;;;;;;;8.55;2.60;;;13.20;99.90;;;;;;5091752;28;19904;-86
2023/05/02 04:32:14;;;;;;;5.53;3.25;;;13.20;99.90;;;;;;5091279;28;20024;-86
2023/05/02 04:34:40;;;;;;;;;;;13.30;99.90;;;;;;5091539;28;20031;-86
2023/05/02 04:37:06;;;;;;;11.23;2.88;;;13.30;99.90;;;;;;5091902;28;19982;-86
2023/05/02 04:39:32;;;;;;;5.78;2.40;;;13.30;99.90;;;;;;5091370;28;20434;-86
2023/05/02 04:41:57;;;;;;;;;;;13.40;99.90;;;;;;5091485;28;20043;-86
2023/05/02 04:44:23;;;;;;;7.97;2.42;;;13.50;99.90;;;;;;5091699;28;20372;-86
2023/05/02 04:46:49;;;;;;;;;;;13.70;99.90;;;;;;5092298;28;20053;-87
2023/05/02 04:49:15;;;;;;;6.25;2.47;;;13.80;99.90;;;;;;5091300;28;19915;-88
2023/05/02 04:51:40;;;;;;;8.82;2.70;;;14.00;99.90;;;;;;5092782;28;20024;-88
2023/05/02 04:54:06;;;;;;;;;;;14.30;99.90;;;;;;5091860;28;20050;-85
2023/05/02 04:56:32;;;;;;;10.68;2.92;;;14.60;97.70;;;;;;5090641;28;20337;-87
2023/05/02 04:58:57;;;;;;;5.53;1.88;;;14.90;94.00;;;;;;5093193;28;20028;-87
2023/05/02 05:01:26;;;;;;;5.35;2.70;;;15.20;89.30;;;;;;5096532;28;20047;-87
2023/05/02 05:03:53;;;;;;;4.18;2.22;;;15.50;85.00;;;;;;5097690;28;20012;-89
2023/05/02 05:06:19;;;;;;;5.50;2.30;;;15.80;81.50;;;;;;5096499;28;20024;-89
2023/05/02 05:08:45;;;;;;;;;;;16.00;80.30;;;;;;5096085;28;20035;-86
2023/05/02 05:11:11;;;;;;;7.20;3.00;;;16.00;78.20;;;;;;5096698;28;20517;-87
2023/05/02 05:13:36;;;;;;;;;;;16.00;78.10;;;;;;5095859;28;20073;-88
2023/05/02 05:16:03;;;;;;;8.48;2.38;;;15.90;78.50;;;;;;5095356;28;19904;-88
2023/05/02 05:18:29;;;;;;;7.47;2.47;;;15.80;79.60;;;;;;5095829;28;20101;-88
2023/05/02 05:20:55;;;;;;;5.55;2.78;;;15.90;79.70;;;;;;5094821;28;20063;-86
2023/05/02 05:23:20;;;;;;;;;;;15.80;78.80;;;;;;5096174;28;20056;-85
2023/05/02 05:25:46;;;;;;;4.32;2.42;;;15.80;80.40;;;;;;5094941;28;20600;-86
2023/05/02 05:28:12;;;;;;;8.95;2.65;;;15.90;79.30;;;;;;5093193;28;20017;-85
2023/05/02 05:30:38;;;;;;;10.15;2.55;;;16.00;79.20;;;;;;5093612;28;20032;-85
2023/05/02 05:33:04;;;;;;;8.48;3.17;;;15.90;80.20;;;;;;5093869;28;20052;-84
2023/05/02 05:35:30;;;;;;;4.55;2.33;;;16.00;81.50;;;;;;5095664;28;20031;-88
2023/05/02 05:37:56;;;;;;;15.32;3.08;;;16.10;82.40;;;;;;5095617;28;20024;-87
2023/05/02 05:40:22;;;;;;;9.75;2.28;;;16.40;80.40;;;;;;5095728;28;20032;-88
2023/05/02 05:42:48;;;;;;;6.75;2.33;;;16.80;78.70;;;;;;5095573;28;20024;-88
2023/05/02 05:45:15;;;;;;;8.70;2.35;;;17.10;76.70;;;;;;5093942;28;20043;-88
2023/05/02 05:47:41;;;;;;;6.68;2.30;;;17.50;75.20;;;;;;5093383;28;20031;-86
2023/05/02 05:50:07;;;;;;;6.60;2.45;;;18.30;72.00;;;;;;5094484;28;20024;-84
2023/05/02 05:52:33;;;;;;;13.77;2.70;;;18.90;68.00;;;;;;5094304;28;20110;-87
2023/05/02 05:54:59;;;;;;;7.10;2.47;;;19.30;64.80;;;;;;5094374;28;20125;-86
2023/05/02 05:57:25;;;;;;;8.70;2.85;;;19.60;63.00;;;;;;5093612;28;20550;-87
2023/05/02 05:59:50;;;;;;;7.47;2.50;;;19.80;62.40;;;;;;5095590;28;20044;-86
2023/05/02 06:02:16;;;;;;;4.03;2.05;;;20.40;60.30;;;;;;5092549;28;20028;-85
2023/05/02 06:04:42;;;;;;;5.47;2.15;;;20.70;57.50;;;;;;5092791;28;20511;-86
2023/05/02 06:07:08;;;;;;;6.63;2.55;;;20.80;55.70;;;;;;5093229;28;20024;-86
2023/05/02 06:09:33;;;;;;;5.07;2.45;;;20.70;54.90;;;;;;5092150;28;20032;-86
2023/05/02 06:12:01;;;;;;;5.82;2.80;;;20.70;54.90;;;;;;5092352;28;20123;-87
2023/05/02 06:14:26;;;;;;;10.82;2.88;;;20.90;53.80;;;;;;5091025;28;20093;-86
2023/05/02 06:16:52;;;;;;;5.82;2.10;;;20.90;52.10;;;;;;5093154;28;20032;-86
2023/05/02 06:19:18;;;;;;;8.27;2.22;;;20.50;52.90;;;;;;5094274;28;20067;-86
2023/05/02 06:21:44;;;;;;;4.55;2.17;;;20.20;53.30;;;;;;5095252;28;20085;-87
2023/05/02 06:24:09;;;;;;;5.38;2.30;;;20.30;53.50;;;;;;5094004;28;20038;-87
2023/05/02 06:26:35;;;;;;;5.55;1.90;;;20.80;52.60;;;;;;5093321;28;20038;-87
2023/05/02 06:29:01;;;;;;;6.30;2.25;;;21.40;51.40;;;;;;5093738;28;20056;-88
2023/05/02 06:31:27;;;;;;;3.47;1.90;;;22.20;49.90;;;;;;5091968;28;20028;-87
2023/05/02 06:33:53;;;;;;;3.88;1.73;;;22.80;48.10;;;;;;5092088;28;20036;-87
2023/05/02 06:36:18;;;;;;;3.80;1.92;;;23.00;42.30;;;;;;5092208;28;20492;-86
2023/05/02 06:38:44;;;;;;;9.88;2.13;;;22.50;40.00;;;;;;5093251;28;20517;-85
2023/05/02 06:41:13;;;;;;;10.07;2.47;;;22.20;42.20;;;;;;5092257;28;20579;-87
2023/05/02 06:43:40;;;;;;;2.67;1.33;;;22.50;42.40;;;;;;5093471;28;20560;-87
2023/05/02 06:46:07;;;;;;;6.90;1.52;;;23.00;39.70;;;;;;5093501;28;20393;-87
2023/05/02 06:48:34;;;;;;;4.43;1.73;;;23.00;38.50;;;;;;5092810;28;20031;-87
2023/05/02 06:51:00;;;;;;;3.13;1.85;;;23.00;39.50;;;;;;5092570;28;20047;-89
2023/05/02 06:53:25;;;;;;;4.60;1.73;;;22.50;38.50;;;;;;5093302;28;20059;-85
2023/05/02 06:55:52;;;;;;;5.72;1.67;;;22.00;38.30;;;;;;5092410;28;20028;-85
2023/05/02 06:58:17;;;;;;;9.40;1.23;;;21.60;38.00;;;;;;5092919;28;20024;-84
2023/05/02 07:00:43;;;;;;;7.50;2.03;;;21.20;39.50;;;;;;5090845;28;20089;-84
2023/05/02 07:03:10;;;;;;;5.10;1.65;;;20.90;40.70;;;;;;5091278;28;20484;-84
2023/05/02 07:05:35;;;;;;;6.28;1.73;;;20.80;40.40;;;;;;5092272;28;20046;-83
2023/05/02 07:08:01;;;;;;;11.35;1.67;;;20.50;42.00;;;;;;5090474;28;20472;-85
2023/05/02 07:10:27;;;;;;;3.47;1.63;;;20.30;44.40;;;;;;5092518;28;20036;-86
2023/05/02 07:12:52;;;;;;;5.28;2.20;;;20.00;44.30;;;;;;5092657;28;20488;-87
2023/05/02 07:15:18;;;;;;;6.22;1.55;;;19.70;45.40;;;;;;5091115;28;20031;-85
2023/05/02 07:17:46;;;;;;;5.60;2.13;;;19.40;44.30;;;;;;5091086;28;20027;-85
2023/05/02 07:20:12;;;;;;;8.18;1.73;;;19.20;44.90;;;;;;5091732;28;20579;-87
2023/05/02 07:22:37;;;;;;;3.80;1.42;;;18.80;45.90;;;;;;5092009;28;20024;-83
2023/05/02 07:25:03;;;;;;;6.47;1.58;;;18.70;46.40;;;;;;5089400;28;20039;-80
2023/05/02 07:27:29;;;;;;;3.05;1.20;;;18.50;47.30;;;;;;5089981;28;20020;-86
2023/05/02 07:29:55;;;;;;;4.35;1.65;;;18.30;47.30;;;;;;5091575;28;20035;-84
2023/05/02 07:32:21;;;;;;;6.60;1.40;;;18.20;48.40;;;;;;5093785;28;20393;-84
2023/05/02 07:34:47;;;;;;;12.27;1.40;;;18.20;48.50;;;;;;5092525;28;20401;-85
2023/05/02 07:37:13;;;;;;;6.93;1.52;;;18.10;47.90;;;;;;5091740;28;20027;-84
2023/05/02 07:39:39;;;;;;;7.07;1.38;;;18.10;48.90;;;;;;5092060;28;20040;-86
2023/05/02 07:42:05;;;;;;;7.90;1.55;;;18.10;50.70;;;;;;5091373;28;20028;-87
2023/05/02 07:44:32;;;;;;;3.88;1.30;;;18.30;50.70;;;;;;5090825;28;20040;-86
2023/05/02 07:46:58;;;;;;;5.07;1.80;;;18.50;51.00;;;;;;5092121;28;20466;-87
2023/05/02 07:49:24;;;;;;;8.48;1.40;;;18.80;50.40;;;;;;5091726;28;20115;-86
2023/05/02 07:51:49;;;;;;;5.95;1.65;;;19.00;49.40;;;;;;5091873;28;20119;-87
2023/05/02 07:54:20;;;;;;;4.63;1.60;;;19.20;49.20;;;;;;5092009;28;20704;-87
2023/05/02 07:56:48;;;;;;;7.07;1.60;;;19.30;48.50;;;;;;5093000;28;20038;-87
2023/05/02 07:59:14;;;;;;;11.25;1.85;;;19.30;49.60;;;;;;5091107;28;20450;-86
2023/05/02 08:01:40;;;;;;;7.45;2.40;;;19.30;48.80;;;;;;5091680;28;20032;-87
2023/05/02 08:04:07;;;;;;;6.60;1.55;;;19.10;49.50;;;;;;5091506;28;20027;-86
2023/05/02 08:06:33;;;;;;;2.95;1.45;;;19.10;50.00;;;;;;5091793;28;20050;-87
2023/05/02 08:08:59;;;;;;;5.50;1.60;;;19.10;49.10;;;;;;5091696;28;20500;-86
2023/05/02 08:11:25;;;;;;;7.75;1.70;;;19.20;50.30;;;;;;5091744;28;20020;-87
2023/05/02 08:13:51;;;;;;;6.85;2.03;;;19.30;50.10;;;;;;5091635;28;20080;-88
2023/05/02 08:16:18;;;;;;;4.47;1.73;;;19.30;49.90;;;;;;5091537;28;20028;-86
2023/05/02 08:18:43;;;;;;;11.45;2.13;;;19.30;48.80;;;;;;5091039;28;20059;-86
2023/05/02 08:21:09;;;;;;;8.45;1.77;;;19.20;49.40;;;;;;5090726;28;20032;-86
2023/05/02 08:23:36;;;;;;;6.45;2.28;;;19.20;50.40;;;;;;5091531;28;20028;-87
2023/05/02 08:26:02;;;;;;;13.73;2.10;;;19.10;50.80;;;;;;5091390;28;20077;-83
2023/05/02 08:28:28;;;;;;;8.25;2.13;;;19.10;52.40;;;;;;5091984;28;20036;-85
2023/05/02 08:30:54;;;;;;;8.20;2.35;;;19.40;52.00;;;;;;5091406;28;20115;-85
2023/05/02 08:33:20;;;;;;;5.55;1.90;;;19.80;50.50;;;;;;5092052;28;20056;-84
2023/05/02 08:35:46;;;;;;;13.77;2.17;;;20.10;49.00;;;;;;5091889;28;20720;-82
2023/05/02 08:38:12;;;;;;;7.80;2.00;;;20.30;48.40;;;;;;5096934;28;20032;-83
2023/05/02 08:40:38;;;;;;;6.00;2.38;;;20.60;47.40;;;;;;5094955;28;20028;-83
2023/05/02 08:43:07;;;;;;;4.45;1.88;;;20.80;47.50;;;;;;5095233;28;20056;-84
2023/05/02 08:45:41;;;;;;;10.75;3.35;;;20.70;46.80;;;;;;5093967;28;20027;-85
2023/05/02 08:48:09;;;;;;;8.23;1.92;;;20.40;47.40;;;;;;5095842;28;20056;-88
2023/05/02 08:50:40;;;;;;;5.80;1.38;;;20.10;48.70;;;;;;5095390;28;20028;-85
2023/05/02 08:53:08;;;;;;;7.10;1.80;;;20.00;49.40;;;;;;5095967;28;20028;-83
2023/05/02 08:55:38;;;;;;;4.40;1.60;;;19.80;50.00;;;;;;5094997;28;20028;-85
2023/05/02 08:58:05;;;;;;;7.32;1.67;;;19.80;51.60;;;;;;5095447;28;20056;-86
2023/05/02 09:00:32;;;;;;;7.65;2.17;;;19.70;50.30;;;;;;5095213;28;20591;-86
2023/05/02 09:03:13;;;;;;;4.45;1.67;;;19.80;51.30;;;;;;5096119;28;20020;-85
2023/05/02 09:05:40;;;;;;;4.60;2.28;;;20.20;51.40;;;;;;5095850;28;20046;-86
2023/05/02 09:08:07;;;;;;;5.30;2.00;;;20.70;50.40;;;;;;5093320;28;20445;-85
2023/05/02 09:10:37;;;;;;;5.85;1.65;;;21.30;50.30;;;;;;5095283;28;20073;-87
2023/05/02 09:13:41;;;;;;;4.28;1.80;;;21.70;48.60;;;;;;5094847;28;20036;-88
2023/05/02 09:16:10;;;;;;;7.00;2.45;;;22.10;47.70;;;;;;5095432;28;20115;-87
2023/05/02 09:18:41;;;;;;;5.07;1.70;;;22.30;46.10;;;;;;5095795;28;20040;-87
2023/05/02 09:21:31;;;;;;;7.38;1.85;;;22.30;46.00;;;;;;5095475;28;20033;-88
2023/05/02 09:23:58;;;;;;;6.80;2.33;;;22.30;45.50;;;;;;5094516;28;20020;-85
2023/05/02 09:26:34;;;;;;;4.82;2.28;;;22.40;44.20;;;;;;5095175;28;20028;-87
2023/05/02 09:29:01;;;;;;;3.38;1.58;;;22.50;45.30;;;;;;5095145;28;20794;-87
2023/05/02 09:31:37;;;;;;;3.17;1.58;;;23.00;44.40;;;;;;5095038;28;20027;-86
2023/05/02 09:34:10;;;;;;;6.93;1.63;;;23.60;43.60;;;;;;5094954;28;20123;-87
2023/05/02 09:36:52;;;;;;;6.40;1.70;;;24.10;41.70;;;;;;5093665;28;20040;-88
2023/05/02 09:39:23;;;;;;;7.82;2.05;;;23.90;38.70;;;;;;5094165;28;20043;-87
2023/05/02 09:41:49;;;;;;;3.55;1.77;;;23.80;40.30;;;;;;5095295;28;20028;-87
2023/05/02 09:44:17;;;;;;;3.40;1.50;;;23.60;41.30;;;;;;5094485;28;20039;-86
2023/05/02 09:46:55;;;;;;;3.65;1.65;;;23.50;41.90;;;;;;5093071;28;20028;-87
2023/05/02 09:49:41;;;;;;;9.02;1.67;;;23.50;40.80;;;;;;5094420;28;20058;-86
2023/05/02 09:52:15;;;;;;;4.00;1.55;;;23.40;41.40;;;;;;5094362;28;20031;-87
2023/05/02 09:54:41;;;;;;;10.48;1.65;;;23.40;42.40;;;;;;5094572;28;20051;-86
2023/05/02 09:57:07;;;;;;;3.63;1.55;;;23.40;40.90;;;;;;5094086;28;20071;-87
2023/05/02 09:59:33;;;;;;;8.52;1.63;;;23.30;41.50;;;;;;5093846;28;20117;-88
2023/05/02 10:02:00;;;;;;;9.38;1.80;;;23.60;42.60;;;;;;5093328;28;20476;-88
2023/05/02 10:04:28;;;;;;;7.88;1.63;;;23.70;41.10;;;;;;5093164;28;20484;-87
2023/05/02 10:06:54;;;;;;;2.40;1.45;;;23.80;40.00;;;;;;5094688;28;20024;-87
2023/05/02 10:09:21;;;;;;;3.33;1.67;;;23.90;39.50;;;;;;5093963;28;20028;-87
2023/05/02 10:11:51;;;;;;;8.25;1.92;;;23.90;39.60;;;;;;5094424;28;20028;-88
2023/05/02 10:14:19;;;;;;;4.15;1.30;;;24.00;41.90;;;;;;5093509;28;20572;-87
2023/05/02 10:17:02;;;;;;;5.15;1.35;;;24.10;40.70;;;;;;5093654;28;20024;-88
2023/05/02 10:19:56;;;;;;;7.25;1.45;;;24.00;39.30;;;;;;5093093;28;20470;-86
2023/05/02 10:22:22;;;;;;;2.08;1.08;;;23.70;41.80;;;;;;5093568;28;20030;-86
2023/05/02 10:24:52;;;;;;;3.38;1.60;;;23.60;41.70;;;;;;5093586;28;20114;-86
2023/05/02 10:27:18;;;;;;;5.57;1.35;;;23.60;41.60;;;;;;5093637;28;20050;-86
2023/05/02 10:29:45;;;;;;;6.78;2.03;;;23.60;40.50;;;;;;5092950;28;20028;-87
2023/05/02 10:32:13;;;;;;;2.28;1.30;;;23.50;41.90;;;;;;5092511;28;20383;-85
2023/05/02 10:34:40;;;;;;;3.55;1.27;;;23.60;42.20;;;;;;5092379;28;20024;-85
2023/05/02 10:37:06;;;;;;;2.97;1.23;;;23.80;42.70;;;;;;5093718;28;20041;-87
2023/05/02 10:39:32;;;;;;;2.22;1.40;;;24.10;41.50;;;;;;5093371;28;20040;-86
2023/05/02 10:42:01;;;;;;;3.80;1.60;;;24.10;40.20;;;;;;5093071;28;20049;-86
2023/05/02 10:44:37;;;;;;;4.85;1.60;;;24.20;40.50;;;;;;5092237;28;20039;-85
2023/05/02 10:47:25;;;;;;;5.03;1.50;;;24.40;40.30;;;;;;5093229;28;20451;-86
2023/05/02 10:49:59;;;;;;;3.17;1.50;;;24.30;39.70;;;;;;5093846;28;20036;-87
2023/05/02 10:52:28;;;;;;;7.05;1.50;;;24.20;40.20;;;;;;5093321;28;20020;-86
2023/05/02 10:55:14;;;;;;;7.40;1.05;;;24.10;38.90;;;;;;5091632;28;20028;-88
2023/05/02 10:57:58;;;;;;;;;;;24.10;40.30;;;;;;5073685;28;20452;-87
2023/05/02 11:00:32;;;;;;;5.03;1.45;;;24.00;41.30;;;;;;5092693;28;19962;-86
2023/05/02 11:02:58;;;;;;;5.45;1.50;;;24.00;40.70;;;;;;5092863;28;20157;-87
2023/05/02 11:05:25;;;;;;;4.97;1.55;;;24.10;40.30;;;;;;5092670;28;20052;-89
2023/05/02 11:08:16;;;;;;;5.07;1.17;;;24.20;41.60;;;;;;5092886;28;20024;-87
2023/05/02 11:10:42;;;;;;;2.20;1.25;;;24.20;40.80;;;;;;5094066;28;20024;-87
2023/05/02 11:13:08;;;;;;;14.45;1.40;;;24.20;41.20;;;;;;5092433;28;20024;-87
2023/05/02 11:15:40;;;;;;;6.38;1.10;;;24.20;40.90;;;;;;5091415;28;20480;-87
2023/05/02 11:18:06;;;;;;;8.73;1.40;;;24.20;39.80;;;;;;5091732;28;20505;-88
2023/05/02 11:20:33;;;;;;;7.38;2.38;;;24.30;40.70;;;;;;5092224;28;20135;-86
2023/05/02 11:23:25;;;;;;;2.67;1.35;;;24.30;38.20;;;;;;5091618;28;20020;-88
2023/05/02 11:25:59;;;;;;;5.88;2.03;;;24.30;38.60;;;;;;5089136;28;20047;-87
2023/05/02 11:28:46;;;;;;;5.63;1.67;;;24.30;38.30;;;;;;5092229;28;20017;-88
2023/05/02 11:31:27;;;;;;;5.63;1.30;;;24.30;39.00;;;;;;5089204;28;20027;-87
2023/05/02 11:33:57;;;;;;;7.22;1.45;;;24.30;37.90;;;;;;5090120;28;20132;-88
2023/05/02 11:36:32;;;;;;;4.93;1.13;;;24.30;37.30;;;;;;5090549;28;20050;-88
2023/05/02 11:38:59;;;;;;;4.53;1.23;;;24.30;38.10;;;;;;5089704;28;20122;-87
2023/05/02 11:41:47;;;;;;;4.82;0.90;;;24.40;39.80;;;;;;5089653;28;20061;-88
2023/05/02 11:44:13;;;;;;;10.07;1.10;;;24.50;38.20;;;;;;5088975;28;20081;-88
2023/05/02 11:46:40;;;;;;;3.92;1.13;;;24.70;39.10;;;;;;5089698;28;20028;-88
2023/05/02 11:49:12;;;;;;;3.92;1.25;;;24.80;37.30;;;;;;5090180;28;20046;-89
2023/05/02 11:51:37;;;;;;;4.70;1.15;;;25.00;35.10;;;;;;5090704;28;20488;-88
2023/05/02 11:54:06;;;;;;;3.60;1.27;;;24.60;35.60;;;;;;5089579;28;20032;-88
2023/05/02 11:56:32;;;;;;;5.22;0.88;;;24.50;36.10;;;;;;5091081;28;20024;-88
2023/05/02 11:59:02;;;;;;;8.48;1.08;;;24.30;37.20;;;;;;5090041;28;20093;-88
2023/05/02 12:01:29;;;;;;;4.15;0.80;;;24.20;36.40;;;;;;5090530;28;20027;-88
2023/05/02 12:04:06;;;;;;;7.13;0.90;;;24.20;36.90;;;;;;5089600;28;20032;-88
2023/05/02 12:06:32;;;;;;;3.05;0.90;;;24.50;35.90;;;;;;5089507;28;20031;-88
2023/05/02 12:09:09;;;;;;;2.80;0.90;;;24.50;34.20;;;;;;5089632;28;20028;-87
2023/05/02 12:11:37;;;;;;;11.15;0.93;;;24.70;35.30;;;;;;5089109;28;20114;-88
2023/05/02 12:14:04;;;;;;;5.13;1.20;;;24.80;35.50;;;;;;5089730;28;20032;-89
2023/05/02 12:16:30;;;;;;;1.92;0.80;;;24.90;35.00;;;;;;5089778;28;20511;-87
2023/05/02 12:18:58;;;;;;;6.22;0.80;;;24.90;33.60;;;;;;5089021;28;20063;-88
2023/05/02 12:21:29;;;;;;;7.40;1.02;;;24.70;33.80;;;;;;5090481;28;20060;-88
2023/05/02 12:23:55;;;;;;;5.80;2.00;;;24.60;34.70;;;;;;5089631;28;20101;-88
2023/05/02 12:26:28;;;;;;;3.60;0.85;;;24.40;34.50;;;;;;5089370;28;20023;-87
2023/05/02 12:28:55;;;;;;;4.78;0.80;;;24.20;35.70;;;;;;5089794;28;20042;-87
2023/05/02 12:31:22;;;;;;;8.10;1.20;;;24.10;35.30;;;;;;5090482;28;20062;-88
2023/05/02 12:33:49;;;;;;;2.00;0.63;;;24.20;33.70;;;;;;5090566;28;20038;-88
2023/05/02 12:36:15;;;;;;;3.95;0.82;;;24.20;33.10;;;;;;5089949;28;20040;-88
2023/05/02 12:38:49;;;;;;;4.75;0.70;;;24.20;32.90;;;;;;5091626;28;20062;-89
2023/05/02 12:41:16;;;;;;;2.50;0.80;;;24.20;33.90;;;;;;5089707;28;20488;-88
2023/05/02 12:43:48;;;;;;;6.90;0.90;;;24.00;34.90;;;;;;5089923;28;20028;-88
2023/05/02 12:46:15;;;;;;;12.15;1.33;;;24.20;34.20;;;;;;5089232;28;20055;-89
2023/05/02 12:48:40;;;;;;;1.27;0.77;;;24.20;34.70;;;;;;5089631;28;20504;-89
2023/05/02 12:51:20;;;;;;;3.72;0.93;;;24.10;32.30;;;;;;5090605;28;20016;-89
2023/05/02 12:53:46;;;;;;;8.10;2.90;;;23.90;33.50;;;;;;5089732;28;20024;-89
2023/05/02 12:56:12;;;;;;;6.55;1.10;;;23.70;34.50;;;;;;5090912;28;20039;-88
2023/05/02 12:58:46;;;;;;;4.25;0.80;;;23.70;36.40;;;;;;5089357;28;20470;-89
2023/05/02 13:01:16;;;;;;;3.95;1.02;;;23.80;34.90;;;;;;5089550;28;20034;-89
2023/05/02 13:03:43;;;;;;;5.85;0.73;;;23.90;34.90;;;;;;5091030;28;20046;-89